sensor_id;sensor_type;location;lat;lon;timestamp;P1;durP1;ratioP1;P2;durP2;ratioP2
44722;SDS011;30451;48.638;10.624;2022-12-18T00:02:14;7.82;;;6.00;;
44722;SDS011;30451;48.638;10.624;2022-12-18T00:04:40;7.07;;;5.60;;
44722;SDS011;30451;48.638;10.624;2022-12-18T00:07:06;6.97;;;5.32;;
44722;SDS011;30451;48.638;10.624;2022-12-18T00:09:32;6.65;;;5.75;;
44722;SDS011;30451;48.638;10.624;2022-12-18T00:11:57;7.95;;;5.55;;
44722;SDS011;30451;48.638;10.624;2022-12-18T00:14:23;7.70;;;5.78;;
44722;SDS011;30451;48.638;10.624;2022-12-18T00:16:49;6.63;;;5.35;;
44722;SDS011;30451;48.638;10.624;2022-12-18T00:19:15;7.30;;;5.78;;
44722;SDS011;30451;48.638;10.624;2022-12-18T00:21:41;7.18;;;5.88;;
44722;SDS011;30451;48.638;10.624;2022-12-18T00:24:09;7.40;;;5.95;;
44722;SDS011;30451;48.638;10.624;2022-12-18T00:26:36;7.68;;;5.88;;
44722;SDS011;30451;48.638;10.624;2022-12-18T00:29:04;7.53;;;5.60;;
44722;SDS011;30451;48.638;10.624;2022-12-18T00:31:32;7.68;;;6.25;;
44722;SDS011;30451;48.638;10.624;2022-12-18T00:33:58;8.13;;;6.07;;
44722;SDS011;30451;48.638;10.624;2022-12-18T00:36:24;7.38;;;5.50;;
44722;SDS011;30451;48.638;10.624;2022-12-18T00:38:55;7.65;;;5.60;;
44722;SDS011;30451;48.638;10.624;2022-12-18T00:41:23;6.72;;;5.47;;
44722;SDS011;30451;48.638;10.624;2022-12-18T00:44:09;6.88;;;5.57;;
44722;SDS011;30451;48.638;10.624;2022-12-18T00:46:37;8.37;;;5.93;;
44722;SDS011;30451;48.638;10.624;2022-12-18T00:49:02;8.27;;;6.00;;
44722;SDS011;30451;48.638;10.624;2022-12-18T00:51:28;7.25;;;5.50;;
44722;SDS011;30451;48.638;10.624;2022-12-18T00:53:54;7.40;;;5.90;;
44722;SDS011;30451;48.638;10.624;2022-12-18T00:56:19;7.60;;;5.65;;
44722;SDS011;30451;48.638;10.624;2022-12-18T00:58:45;7.43;;;5.97;;
44722;SDS011;30451;48.638;10.624;2022-12-18T01:01:11;8.00;;;6.65;;
44722;SDS011;30451;48.638;10.624;2022-12-18T01:03:36;7.43;;;5.80;;
44722;SDS011;30451;48.638;10.624;2022-12-18T01:06:09;7.47;;;5.90;;
44722;SDS011;30451;48.638;10.624;2022-12-18T01:08:36;7.28;;;5.70;;
44722;SDS011;30451;48.638;10.624;2022-12-18T01:11:10;6.95;;;5.65;;
44722;SDS011;30451;48.638;10.624;2022-12-18T01:13:37;7.18;;;5.80;;
44722;SDS011;30451;48.638;10.624;2022-12-18T01:16:04;7.07;;;5.38;;
44722;SDS011;30451;48.638;10.624;2022-12-18T01:18:30;6.78;;;5.28;;
44722;SDS011;30451;48.638;10.624;2022-12-18T01:20:55;7.00;;;5.25;;
44722;SDS011;30451;48.638;10.624;2022-12-18T01:23:21;7.00;;;5.50;;
44722;SDS011;30451;48.638;10.624;2022-12-18T01:25:47;7.00;;;5.30;;
44722;SDS011;30451;48.638;10.624;2022-12-18T01:28:12;8.00;;;5.78;;
44722;SDS011;30451;48.638;10.624;2022-12-18T01:30:38;6.80;;;5.32;;
44722;SDS011;30451;48.638;10.624;2022-12-18T01:33:04;7.57;;;5.90;;
44722;SDS011;30451;48.638;10.624;2022-12-18T01:35:30;7.00;;;5.57;;
44722;SDS011;30451;48.638;10.624;2022-12-18T01:37:56;6.55;;;5.63;;
44722;SDS011;30451;48.638;10.624;2022-12-18T01:40:22;6.82;;;5.57;;
44722;SDS011;30451;48.638;10.624;2022-12-18T01:42:51;6.95;;;5.45;;
44722;SDS011;30451;48.638;10.624;2022-12-18T01:45:22;7.18;;;5.32;;
44722;SDS011;30451;48.638;10.624;2022-12-18T01:47:53;6.25;;;4.85;;
44722;SDS011;30451;48.638;10.624;2022-12-18T01:50:36;6.65;;;4.93;;
44722;SDS011;30451;48.638;10.624;2022-12-18T01:55:38;6.22;;;4.78;;
44722;SDS011;30451;48.638;10.624;2022-12-18T01:58:08;7.10;;;5.50;;
44722;SDS011;30451;48.638;10.624;2022-12-18T02:00:34;6.97;;;5.72;;
44722;SDS011;30451;48.638;10.624;2022-12-18T02:03:00;7.90;;;5.53;;
44722;SDS011;30451;48.638;10.624;2022-12-18T02:05:34;6.72;;;5.50;;
44722;SDS011;30451;48.638;10.624;2022-12-18T02:13:32;6.63;;;5.30;;
44722;SDS011;30451;48.638;10.624;2022-12-18T02:16:26;7.18;;;5.50;;
44722;SDS011;30451;48.638;10.624;2022-12-18T02:19:04;7.43;;;5.78;;
44722;SDS011;30451;48.638;10.624;2022-12-18T02:21:40;5.95;;;4.70;;
44722;SDS011;30451;48.638;10.624;2022-12-18T02:24:27;6.75;;;5.47;;
44722;SDS011;30451;48.638;10.624;2022-12-18T02:27:04;6.72;;;5.35;;
44722;SDS011;30451;48.638;10.624;2022-12-18T02:29:33;7.20;;;5.25;;
44722;SDS011;30451;48.638;10.624;2022-12-18T02:32:06;7.30;;;5.63;;
44722;SDS011;30451;48.638;10.624;2022-12-18T02:34:38;7.05;;;5.32;;
44722;SDS011;30451;48.638;10.624;2022-12-18T02:37:05;6.95;;;5.60;;
44722;SDS011;30451;48.638;10.624;2022-12-18T02:39:36;7.10;;;5.15;;
44722;SDS011;30451;48.638;10.624;2022-12-18T02:42:03;7.00;;;5.43;;
44722;SDS011;30451;48.638;10.624;2022-12-18T02:44:33;7.03;;;5.78;;
44722;SDS011;30451;48.638;10.624;2022-12-18T02:47:12;6.22;;;5.20;;
44722;SDS011;30451;48.638;10.624;2022-12-18T03:01:52;5.90;;;4.80;;
44722;SDS011;30451;48.638;10.624;2022-12-18T03:06:45;6.53;;;4.93;;
44722;SDS011;30451;48.638;10.624;2022-12-18T03:09:16;5.53;;;4.80;;
44722;SDS011;30451;48.638;10.624;2022-12-18T03:11:48;6.18;;;4.50;;
44722;SDS011;30451;48.638;10.624;2022-12-18T03:14:44;6.07;;;4.95;;
44722;SDS011;30451;48.638;10.624;2022-12-18T03:17:13;5.88;;;4.72;;
44722;SDS011;30451;48.638;10.624;2022-12-18T03:19:42;5.68;;;4.55;;
44722;SDS011;30451;48.638;10.624;2022-12-18T03:22:11;5.60;;;4.32;;
44722;SDS011;30451;48.638;10.624;2022-12-18T03:24:38;5.78;;;4.50;;
44722;SDS011;30451;48.638;10.624;2022-12-18T03:27:06;5.80;;;4.63;;
44722;SDS011;30451;48.638;10.624;2022-12-18T03:29:40;5.70;;;4.53;;
44722;SDS011;30451;48.638;10.624;2022-12-18T03:32:20;6.00;;;4.55;;
44722;SDS011;30451;48.638;10.624;2022-12-18T03:34:51;6.18;;;5.00;;
44722;SDS011;30451;48.638;10.624;2022-12-18T03:37:19;6.10;;;4.80;;
44722;SDS011;30451;48.638;10.624;2022-12-18T03:39:45;6.50;;;4.85;;
44722;SDS011;30451;48.638;10.624;2022-12-18T03:42:21;5.80;;;4.40;;
44722;SDS011;30451;48.638;10.624;2022-12-18T03:47:38;6.28;;;5.13;;
44722;SDS011;30451;48.638;10.624;2022-12-18T03:51:00;7.50;;;5.45;;
44722;SDS011;30451;48.638;10.624;2022-12-18T03:55:53;7.10;;;4.38;;
44722;SDS011;30451;48.638;10.624;2022-12-18T03:58:21;6.97;;;4.57;;
44722;SDS011;30451;48.638;10.624;2022-12-18T04:00:51;6.07;;;4.40;;
44722;SDS011;30451;48.638;10.624;2022-12-18T04:03:18;6.10;;;4.45;;
44722;SDS011;30451;48.638;10.624;2022-12-18T04:05:45;5.50;;;4.15;;
44722;SDS011;30451;48.638;10.624;2022-12-18T04:10:40;5.85;;;4.32;;
44722;SDS011;30451;48.638;10.624;2022-12-18T04:13:06;5.88;;;4.53;;
44722;SDS011;30451;48.638;10.624;2022-12-18T04:15:33;5.40;;;4.07;;
44722;SDS011;30451;48.638;10.624;2022-12-18T04:18:00;5.07;;;4.10;;
44722;SDS011;30451;48.638;10.624;2022-12-18T04:20:25;5.22;;;4.00;;
44722;SDS011;30451;48.638;10.624;2022-12-18T04:22:51;5.40;;;4.00;;
44722;SDS011;30451;48.638;10.624;2022-12-18T04:25:16;5.47;;;4.00;;
44722;SDS011;30451;48.638;10.624;2022-12-18T04:27:42;5.05;;;3.83;;
44722;SDS011;30451;48.638;10.624;2022-12-18T04:30:08;5.20;;;4.00;;
44722;SDS011;30451;48.638;10.624;2022-12-18T04:32:34;4.90;;;4.05;;
44722;SDS011;30451;48.638;10.624;2022-12-18T04:35:00;5.65;;;4.32;;
44722;SDS011;30451;48.638;10.624;2022-12-18T04:37:25;5.45;;;4.13;;
44722;SDS011;30451;48.638;10.624;2022-12-18T04:39:51;5.30;;;3.95;;
44722;SDS011;30451;48.638;10.624;2022-12-18T04:42:17;5.32;;;4.35;;
44722;SDS011;30451;48.638;10.624;2022-12-18T04:44:42;6.22;;;4.93;;
44722;SDS011;30451;48.638;10.624;2022-12-18T04:47:08;7.22;;;5.13;;
44722;SDS011;30451;48.638;10.624;2022-12-18T04:49:33;5.35;;;4.35;;
44722;SDS011;30451;48.638;10.624;2022-12-18T04:51:59;6.00;;;4.45;;
44722;SDS011;30451;48.638;10.624;2022-12-18T04:54:25;5.45;;;4.55;;
44722;SDS011;30451;48.638;10.624;2022-12-18T04:56:50;6.35;;;4.20;;
44722;SDS011;30451;48.638;10.624;2022-12-18T04:59:16;6.15;;;4.72;;
44722;SDS011;30451;48.638;10.624;2022-12-18T05:01:42;5.80;;;4.18;;
44722;SDS011;30451;48.638;10.624;2022-12-18T05:04:07;6.25;;;4.70;;
44722;SDS011;30451;48.638;10.624;2022-12-18T05:06:33;4.90;;;4.00;;
44722;SDS011;30451;48.638;10.624;2022-12-18T05:08:58;5.85;;;4.72;;
44722;SDS011;30451;48.638;10.624;2022-12-18T05:11:24;5.20;;;3.95;;
44722;SDS011;30451;48.638;10.624;2022-12-18T05:13:50;5.60;;;4.30;;
44722;SDS011;30451;48.638;10.624;2022-12-18T05:16:16;6.57;;;4.30;;
44722;SDS011;30451;48.638;10.624;2022-12-18T05:18:41;5.20;;;4.18;;
44722;SDS011;30451;48.638;10.624;2022-12-18T05:21:07;5.40;;;4.20;;
44722;SDS011;30451;48.638;10.624;2022-12-18T05:23:33;5.43;;;4.30;;
44722;SDS011;30451;48.638;10.624;2022-12-18T05:26:00;5.10;;;4.00;;
44722;SDS011;30451;48.638;10.624;2022-12-18T05:28:27;5.38;;;4.03;;
44722;SDS011;30451;48.638;10.624;2022-12-18T05:30:55;5.35;;;4.15;;
44722;SDS011;30451;48.638;10.624;2022-12-18T05:33:23;4.97;;;4.03;;
44722;SDS011;30451;48.638;10.624;2022-12-18T05:35:54;5.43;;;4.17;;
44722;SDS011;30451;48.638;10.624;2022-12-18T05:38:22;4.90;;;4.05;;
44722;SDS011;30451;48.638;10.624;2022-12-18T05:40:49;6.28;;;4.30;;
44722;SDS011;30451;48.638;10.624;2022-12-18T05:43:15;5.53;;;4.20;;
44722;SDS011;30451;48.638;10.624;2022-12-18T05:45:41;5.00;;;3.88;;
44722;SDS011;30451;48.638;10.624;2022-12-18T05:48:07;5.00;;;4.05;;
44722;SDS011;30451;48.638;10.624;2022-12-18T05:50:34;5.05;;;3.90;;
44722;SDS011;30451;48.638;10.624;2022-12-18T05:53:01;5.45;;;4.10;;
44722;SDS011;30451;48.638;10.624;2022-12-18T05:55:27;5.50;;;4.25;;
44722;SDS011;30451;48.638;10.624;2022-12-18T05:57:53;5.00;;;3.97;;
44722;SDS011;30451;48.638;10.624;2022-12-18T06:00:19;5.07;;;4.18;;
44722;SDS011;30451;48.638;10.624;2022-12-18T06:02:48;5.70;;;4.30;;
44722;SDS011;30451;48.638;10.624;2022-12-18T06:05:13;6.07;;;4.38;;
44722;SDS011;30451;48.638;10.624;2022-12-18T06:07:39;5.68;;;4.47;;
44722;SDS011;30451;48.638;10.624;2022-12-18T06:10:05;5.32;;;4.43;;
44722;SDS011;30451;48.638;10.624;2022-12-18T06:12:31;6.45;;;4.78;;
44722;SDS011;30451;48.638;10.624;2022-12-18T06:14:58;5.45;;;4.40;;
44722;SDS011;30451;48.638;10.624;2022-12-18T06:17:31;5.82;;;4.20;;
44722;SDS011;30451;48.638;10.624;2022-12-18T06:19:57;5.20;;;4.20;;
44722;SDS011;30451;48.638;10.624;2022-12-18T06:22:24;5.97;;;4.70;;
44722;SDS011;30451;48.638;10.624;2022-12-18T06:24:49;5.78;;;4.35;;
44722;SDS011;30451;48.638;10.624;2022-12-18T06:27:15;5.53;;;4.40;;
44722;SDS011;30451;48.638;10.624;2022-12-18T06:29:41;5.45;;;4.30;;
44722;SDS011;30451;48.638;10.624;2022-12-18T06:32:07;5.75;;;4.50;;
44722;SDS011;30451;48.638;10.624;2022-12-18T06:34:33;5.43;;;4.13;;
44722;SDS011;30451;48.638;10.624;2022-12-18T06:36:58;5.68;;;4.47;;
44722;SDS011;30451;48.638;10.624;2022-12-18T06:39:26;5.95;;;4.32;;
44722;SDS011;30451;48.638;10.624;2022-12-18T06:41:52;5.30;;;4.20;;
44722;SDS011;30451;48.638;10.624;2022-12-18T06:44:18;6.10;;;4.82;;
44722;SDS011;30451;48.638;10.624;2022-12-18T06:46:44;5.43;;;4.15;;
44722;SDS011;30451;48.638;10.624;2022-12-18T06:49:10;5.88;;;4.30;;
44722;SDS011;30451;48.638;10.624;2022-12-18T06:51:35;5.25;;;4.32;;
44722;SDS011;30451;48.638;10.624;2022-12-18T06:54:01;5.68;;;4.28;;
44722;SDS011;30451;48.638;10.624;2022-12-18T06:56:27;5.47;;;4.47;;
44722;SDS011;30451;48.638;10.624;2022-12-18T06:58:53;5.68;;;4.55;;
44722;SDS011;30451;48.638;10.624;2022-12-18T07:01:20;4.90;;;4.05;;
44722;SDS011;30451;48.638;10.624;2022-12-18T07:03:46;5.07;;;4.30;;
44722;SDS011;30451;48.638;10.624;2022-12-18T07:06:17;5.50;;;4.00;;
44722;SDS011;30451;48.638;10.624;2022-12-18T07:08:43;5.65;;;4.38;;
44722;SDS011;30451;48.638;10.624;2022-12-18T07:11:10;5.47;;;4.10;;
44722;SDS011;30451;48.638;10.624;2022-12-18T07:13:36;4.97;;;3.88;;
44722;SDS011;30451;48.638;10.624;2022-12-18T07:18:30;5.10;;;4.30;;
44722;SDS011;30451;48.638;10.624;2022-12-18T07:20:56;5.15;;;4.00;;
44722;SDS011;30451;48.638;10.624;2022-12-18T07:23:21;5.38;;;3.92;;
44722;SDS011;30451;48.638;10.624;2022-12-18T07:25:47;5.13;;;4.18;;
44722;SDS011;30451;48.638;10.624;2022-12-18T07:28:12;4.97;;;3.90;;
44722;SDS011;30451;48.638;10.624;2022-12-18T07:30:39;5.10;;;3.90;;
44722;SDS011;30451;48.638;10.624;2022-12-18T07:33:05;5.15;;;3.97;;
44722;SDS011;30451;48.638;10.624;2022-12-18T07:35:32;5.57;;;4.22;;
44722;SDS011;30451;48.638;10.624;2022-12-18T07:37:58;5.43;;;4.15;;
44722;SDS011;30451;48.638;10.624;2022-12-18T07:40:23;5.30;;;3.80;;
44722;SDS011;30451;48.638;10.624;2022-12-18T07:42:49;5.60;;;4.00;;
44722;SDS011;30451;48.638;10.624;2022-12-18T07:45:14;4.53;;;3.83;;
44722;SDS011;30451;48.638;10.624;2022-12-18T07:47:40;5.20;;;4.10;;
44722;SDS011;30451;48.638;10.624;2022-12-18T07:50:06;4.70;;;3.70;;
44722;SDS011;30451;48.638;10.624;2022-12-18T07:52:32;4.95;;;3.90;;
44722;SDS011;30451;48.638;10.624;2022-12-18T07:54:57;5.18;;;3.60;;
44722;SDS011;30451;48.638;10.624;2022-12-18T07:57:23;4.93;;;3.83;;
44722;SDS011;30451;48.638;10.624;2022-12-18T07:59:49;5.38;;;3.80;;
44722;SDS011;30451;48.638;10.624;2022-12-18T08:02:14;5.45;;;3.75;;
44722;SDS011;30451;48.638;10.624;2022-12-18T08:04:40;4.97;;;3.80;;
44722;SDS011;30451;48.638;10.624;2022-12-18T08:07:05;4.80;;;3.80;;
44722;SDS011;30451;48.638;10.624;2022-12-18T08:09:31;4.85;;;3.78;;
44722;SDS011;30451;48.638;10.624;2022-12-18T08:11:57;4.25;;;3.55;;
44722;SDS011;30451;48.638;10.624;2022-12-18T08:14:22;4.45;;;3.40;;
44722;SDS011;30451;48.638;10.624;2022-12-18T08:16:48;5.47;;;3.65;;
44722;SDS011;30451;48.638;10.624;2022-12-18T08:19:13;4.50;;;3.50;;
44722;SDS011;30451;48.638;10.624;2022-12-18T08:21:39;4.68;;;3.22;;
44722;SDS011;30451;48.638;10.624;2022-12-18T08:24:06;4.20;;;3.30;;
44722;SDS011;30451;48.638;10.624;2022-12-18T08:26:34;4.80;;;3.80;;
44722;SDS011;30451;48.638;10.624;2022-12-18T08:29:00;4.90;;;3.50;;
44722;SDS011;30451;48.638;10.624;2022-12-18T08:31:26;5.03;;;3.95;;
44722;SDS011;30451;48.638;10.624;2022-12-18T08:33:53;4.57;;;3.55;;
44722;SDS011;30451;48.638;10.624;2022-12-18T08:36:20;4.55;;;3.60;;
44722;SDS011;30451;48.638;10.624;2022-12-18T08:38:46;6.68;;;4.38;;
44722;SDS011;30451;48.638;10.624;2022-12-18T08:41:13;6.75;;;4.72;;
44722;SDS011;30451;48.638;10.624;2022-12-18T08:43:40;7.03;;;5.07;;
44722;SDS011;30451;48.638;10.624;2022-12-18T08:46:25;8.30;;;5.88;;
44722;SDS011;30451;48.638;10.624;2022-12-18T08:48:52;9.27;;;6.03;;
44722;SDS011;30451;48.638;10.624;2022-12-18T08:51:19;9.73;;;6.32;;
44722;SDS011;30451;48.638;10.624;2022-12-18T08:53:45;8.98;;;5.82;;
44722;SDS011;30451;48.638;10.624;2022-12-18T08:56:11;10.00;;;6.50;;
44722;SDS011;30451;48.638;10.624;2022-12-18T08:58:38;10.27;;;7.00;;
44722;SDS011;30451;48.638;10.624;2022-12-18T09:01:05;11.32;;;6.90;;
44722;SDS011;30451;48.638;10.624;2022-12-18T09:03:32;9.90;;;6.88;;
44722;SDS011;30451;48.638;10.624;2022-12-18T09:05:58;11.20;;;6.88;;
44722;SDS011;30451;48.638;10.624;2022-12-18T09:08:24;10.43;;;6.97;;
44722;SDS011;30451;48.638;10.624;2022-12-18T09:10:50;9.13;;;6.40;;
44722;SDS011;30451;48.638;10.624;2022-12-18T09:13:16;10.65;;;6.85;;
44722;SDS011;30451;48.638;10.624;2022-12-18T09:15:49;10.40;;;7.03;;
44722;SDS011;30451;48.638;10.624;2022-12-18T09:18:18;11.77;;;7.32;;
44722;SDS011;30451;48.638;10.624;2022-12-18T09:20:45;11.35;;;7.22;;
44722;SDS011;30451;48.638;10.624;2022-12-18T09:23:11;10.20;;;6.88;;
44722;SDS011;30451;48.638;10.624;2022-12-18T09:25:37;9.70;;;7.15;;
44722;SDS011;30451;48.638;10.624;2022-12-18T09:28:04;12.35;;;7.93;;
44722;SDS011;30451;48.638;10.624;2022-12-18T09:30:36;10.20;;;6.95;;
44722;SDS011;30451;48.638;10.624;2022-12-18T09:33:03;11.40;;;7.00;;
44722;SDS011;30451;48.638;10.624;2022-12-18T09:35:28;10.40;;;7.13;;
44722;SDS011;30451;48.638;10.624;2022-12-18T09:37:54;9.88;;;7.20;;
44722;SDS011;30451;48.638;10.624;2022-12-18T09:40:21;10.18;;;6.57;;
44722;SDS011;30451;48.638;10.624;2022-12-18T09:42:51;9.88;;;7.00;;
44722;SDS011;30451;48.638;10.624;2022-12-18T09:45:20;11.05;;;6.90;;
44722;SDS011;30451;48.638;10.624;2022-12-18T09:47:47;10.68;;;6.65;;
44722;SDS011;30451;48.638;10.624;2022-12-18T09:52:57;10.27;;;6.88;;
44722;SDS011;30451;48.638;10.624;2022-12-18T09:55:42;12.25;;;7.20;;
44722;SDS011;30451;48.638;10.624;2022-12-18T09:58:16;9.38;;;6.63;;
44722;SDS011;30451;48.638;10.624;2022-12-18T10:00:51;9.60;;;6.55;;
44722;SDS011;30451;48.638;10.624;2022-12-18T10:03:17;10.43;;;6.43;;
44722;SDS011;30451;48.638;10.624;2022-12-18T10:05:46;9.70;;;6.60;;
44722;SDS011;30451;48.638;10.624;2022-12-18T10:11:22;9.48;;;6.40;;
44722;SDS011;30451;48.638;10.624;2022-12-18T10:16:36;10.63;;;6.70;;
44722;SDS011;30451;48.638;10.624;2022-12-18T10:25:00;10.60;;;6.90;;
44722;SDS011;30451;48.638;10.624;2022-12-18T10:27:39;9.70;;;6.32;;
44722;SDS011;30451;48.638;10.624;2022-12-18T10:30:23;9.25;;;5.93;;
44722;SDS011;30451;48.638;10.624;2022-12-18T10:32:50;9.68;;;6.38;;
44722;SDS011;30451;48.638;10.624;2022-12-18T10:35:24;9.70;;;6.78;;
44722;SDS011;30451;48.638;10.624;2022-12-18T10:38:20;9.15;;;6.20;;
44722;SDS011;30451;48.638;10.624;2022-12-18T10:43:21;8.33;;;6.27;;
44722;SDS011;30451;48.638;10.624;2022-12-18T10:45:59;9.02;;;6.15;;
44722;SDS011;30451;48.638;10.624;2022-12-18T10:48:28;8.65;;;5.97;;
44722;SDS011;30451;48.638;10.624;2022-12-18T10:50:54;9.35;;;6.07;;
44722;SDS011;30451;48.638;10.624;2022-12-18T10:53:27;9.98;;;6.88;;
44722;SDS011;30451;48.638;10.624;2022-12-18T10:55:55;9.82;;;6.00;;
44722;SDS011;30451;48.638;10.624;2022-12-18T11:01:13;9.80;;;6.28;;
44722;SDS011;30451;48.638;10.624;2022-12-18T11:03:44;8.43;;;5.57;;
44722;SDS011;30451;48.638;10.624;2022-12-18T11:06:20;11.05;;;6.35;;
44722;SDS011;30451;48.638;10.624;2022-12-18T11:09:02;8.25;;;5.85;;
44722;SDS011;30451;48.638;10.624;2022-12-18T11:11:29;7.72;;;6.10;;
44722;SDS011;30451;48.638;10.624;2022-12-18T11:14:15;8.40;;;5.72;;
44722;SDS011;30451;48.638;10.624;2022-12-18T11:16:46;8.60;;;5.70;;
44722;SDS011;30451;48.638;10.624;2022-12-18T11:21:50;7.70;;;5.22;;
44722;SDS011;30451;48.638;10.624;2022-12-18T11:26:54;7.45;;;4.95;;
44722;SDS011;30451;48.638;10.624;2022-12-18T11:29:28;7.15;;;4.60;;
44722;SDS011;30451;48.638;10.624;2022-12-18T11:34:39;6.78;;;4.88;;
44722;SDS011;30451;48.638;10.624;2022-12-18T11:37:07;6.82;;;5.05;;
44722;SDS011;30451;48.638;10.624;2022-12-18T11:39:44;6.55;;;4.95;;
44722;SDS011;30451;48.638;10.624;2022-12-18T11:45:09;8.48;;;5.35;;
44722;SDS011;30451;48.638;10.624;2022-12-18T11:50:28;7.97;;;5.68;;
44722;SDS011;30451;48.638;10.624;2022-12-18T11:53:01;7.15;;;5.65;;
44722;SDS011;30451;48.638;10.624;2022-12-18T11:58:57;7.85;;;5.50;;
44722;SDS011;30451;48.638;10.624;2022-12-18T12:07:32;7.40;;;4.80;;
44722;SDS011;30451;48.638;10.624;2022-12-18T12:13:33;5.78;;;4.35;;
44722;SDS011;30451;48.638;10.624;2022-12-18T12:26:35;6.97;;;4.10;;
44722;SDS011;30451;48.638;10.624;2022-12-18T12:32:32;5.95;;;3.95;;
44722;SDS011;30451;48.638;10.624;2022-12-18T12:40:35;7.05;;;4.30;;
44722;SDS011;30451;48.638;10.624;2022-12-18T12:45:53;6.03;;;4.43;;
44722;SDS011;30451;48.638;10.624;2022-12-18T12:50:57;5.82;;;4.18;;
44722;SDS011;30451;48.638;10.624;2022-12-18T12:53:30;5.40;;;4.15;;
44722;SDS011;30451;48.638;10.624;2022-12-18T12:55:59;7.22;;;4.40;;
44722;SDS011;30451;48.638;10.624;2022-12-18T12:58:37;5.55;;;4.50;;
44722;SDS011;30451;48.638;10.624;2022-12-18T13:01:26;6.65;;;4.15;;
44722;SDS011;30451;48.638;10.624;2022-12-18T13:04:06;5.75;;;4.32;;
44722;SDS011;30451;48.638;10.624;2022-12-18T13:06:47;5.88;;;4.30;;
44722;SDS011;30451;48.638;10.624;2022-12-18T13:09:32;6.07;;;4.20;;
44722;SDS011;30451;48.638;10.624;2022-12-18T13:12:02;5.85;;;4.28;;
44722;SDS011;30451;48.638;10.624;2022-12-18T13:14:47;5.72;;;4.18;;
44722;SDS011;30451;48.638;10.624;2022-12-18T13:17:31;6.18;;;4.03;;
44722;SDS011;30451;48.638;10.624;2022-12-18T13:20:10;5.57;;;4.00;;
44722;SDS011;30451;48.638;10.624;2022-12-18T13:22:48;5.70;;;4.00;;
44722;SDS011;30451;48.638;10.624;2022-12-18T13:51:26;12.20;;;7.80;;
44722;SDS011;30451;48.638;10.624;2022-12-18T13:53:54;13.13;;;7.80;;
44722;SDS011;30451;48.638;10.624;2022-12-18T13:56:31;15.35;;;9.23;;
44722;SDS011;30451;48.638;10.624;2022-12-18T14:01:48;17.27;;;11.02;;
44722;SDS011;30451;48.638;10.624;2022-12-18T14:04:30;17.33;;;10.45;;
44722;SDS011;30451;48.638;10.624;2022-12-18T14:07:07;15.10;;;9.23;;
44722;SDS011;30451;48.638;10.624;2022-12-18T14:10:21;15.38;;;9.32;;
44722;SDS011;30451;48.638;10.624;2022-12-18T14:12:28;14.18;;;9.68;;
44722;SDS011;30451;48.638;10.624;2022-12-18T14:17:57;14.65;;;9.27;;
44722;SDS011;30451;48.638;10.624;2022-12-18T14:20:25;12.93;;;8.57;;
44722;SDS011;30451;48.638;10.624;2022-12-18T14:22:52;14.98;;;8.85;;
44722;SDS011;30451;48.638;10.624;2022-12-18T14:27:46;12.23;;;8.32;;
44722;SDS011;30451;48.638;10.624;2022-12-18T14:35:34;11.02;;;7.53;;
44722;SDS011;30451;48.638;10.624;2022-12-18T14:38:36;11.80;;;6.93;;
44722;SDS011;30451;48.638;10.624;2022-12-18T14:41:05;11.90;;;7.20;;
44722;SDS011;30451;48.638;10.624;2022-12-18T14:43:37;10.32;;;6.82;;
44722;SDS011;30451;48.638;10.624;2022-12-18T14:46:04;12.32;;;7.75;;
44722;SDS011;30451;48.638;10.624;2022-12-18T14:48:49;11.70;;;7.50;;
44722;SDS011;30451;48.638;10.624;2022-12-18T14:51:17;11.38;;;7.18;;
44722;SDS011;30451;48.638;10.624;2022-12-18T14:54:01;10.00;;;6.70;;
44722;SDS011;30451;48.638;10.624;2022-12-18T14:56:34;9.05;;;6.75;;
44722;SDS011;30451;48.638;10.624;2022-12-18T14:59:15;9.27;;;6.40;;
44722;SDS011;30451;48.638;10.624;2022-12-18T15:05:05;14.30;;;8.38;;
44722;SDS011;30451;48.638;10.624;2022-12-18T15:07:52;13.60;;;8.73;;
44722;SDS011;30451;48.638;10.624;2022-12-18T15:10:23;12.57;;;8.77;;
44722;SDS011;30451;48.638;10.624;2022-12-18T15:18:03;12.68;;;8.35;;
44722;SDS011;30451;48.638;10.624;2022-12-18T15:20:33;12.07;;;8.23;;
44722;SDS011;30451;48.638;10.624;2022-12-18T15:23:17;14.10;;;8.90;;
44722;SDS011;30451;48.638;10.624;2022-12-18T15:25:43;13.05;;;8.30;;
44722;SDS011;30451;48.638;10.624;2022-12-18T15:28:25;13.23;;;8.35;;
44722;SDS011;30451;48.638;10.624;2022-12-18T15:33:39;13.38;;;8.95;;
44722;SDS011;30451;48.638;10.624;2022-12-18T15:36:15;11.02;;;7.90;;
44722;SDS011;30451;48.638;10.624;2022-12-18T15:38:45;13.45;;;8.35;;
44722;SDS011;30451;48.638;10.624;2022-12-18T15:41:13;13.35;;;8.85;;
44722;SDS011;30451;48.638;10.624;2022-12-18T15:43:41;15.68;;;8.45;;
44722;SDS011;30451;48.638;10.624;2022-12-18T15:46:40;13.55;;;8.45;;
44722;SDS011;30451;48.638;10.624;2022-12-18T15:48:59;14.88;;;8.90;;
44722;SDS011;30451;48.638;10.624;2022-12-18T15:51:28;15.05;;;8.38;;
44722;SDS011;30451;48.638;10.624;2022-12-18T15:53:58;12.00;;;7.97;;
44722;SDS011;30451;48.638;10.624;2022-12-18T15:56:25;9.85;;;6.20;;
44722;SDS011;30451;48.638;10.624;2022-12-18T15:59:11;9.90;;;6.20;;
44722;SDS011;30451;48.638;10.624;2022-12-18T16:01:38;8.60;;;5.63;;
44722;SDS011;30451;48.638;10.624;2022-12-18T16:04:05;7.90;;;5.55;;
44722;SDS011;30451;48.638;10.624;2022-12-18T16:06:30;9.60;;;5.75;;
44722;SDS011;30451;48.638;10.624;2022-12-18T16:08:56;9.90;;;5.95;;
44722;SDS011;30451;48.638;10.624;2022-12-18T16:11:26;8.65;;;5.68;;
44722;SDS011;30451;48.638;10.624;2022-12-18T16:14:24;8.88;;;5.50;;
44722;SDS011;30451;48.638;10.624;2022-12-18T16:16:53;9.73;;;5.68;;
44722;SDS011;30451;48.638;10.624;2022-12-18T16:19:23;10.13;;;5.30;;
44722;SDS011;30451;48.638;10.624;2022-12-18T16:21:49;9.05;;;5.18;;
44722;SDS011;30451;48.638;10.624;2022-12-18T16:24:17;8.68;;;5.10;;
44722;SDS011;30451;48.638;10.624;2022-12-18T16:26:44;8.85;;;5.18;;
44722;SDS011;30451;48.638;10.624;2022-12-18T16:29:10;8.07;;;5.13;;
44722;SDS011;30451;48.638;10.624;2022-12-18T16:31:36;9.50;;;5.32;;
44722;SDS011;30451;48.638;10.624;2022-12-18T16:36:51;8.00;;;5.10;;
44722;SDS011;30451;48.638;10.624;2022-12-18T16:39:18;8.43;;;4.70;;
44722;SDS011;30451;48.638;10.624;2022-12-18T16:41:45;10.15;;;5.40;;
44722;SDS011;30451;48.638;10.624;2022-12-18T16:44:11;9.43;;;5.47;;
44722;SDS011;30451;48.638;10.624;2022-12-18T16:46:37;8.80;;;5.85;;
44722;SDS011;30451;48.638;10.624;2022-12-18T16:49:04;8.27;;;4.55;;
44722;SDS011;30451;48.638;10.624;2022-12-18T16:51:33;8.02;;;5.00;;
44722;SDS011;30451;48.638;10.624;2022-12-18T16:53:59;10.65;;;5.82;;
44722;SDS011;30451;48.638;10.624;2022-12-18T16:56:25;8.65;;;5.70;;
44722;SDS011;30451;48.638;10.624;2022-12-18T16:58:54;8.05;;;5.25;;
44722;SDS011;30451;48.638;10.624;2022-12-18T17:01:22;11.00;;;6.53;;
44722;SDS011;30451;48.638;10.624;2022-12-18T17:03:56;11.35;;;6.53;;
44722;SDS011;30451;48.638;10.624;2022-12-18T17:06:23;11.02;;;6.68;;
44722;SDS011;30451;48.638;10.624;2022-12-18T17:09:00;9.95;;;6.43;;
44722;SDS011;30451;48.638;10.624;2022-12-18T17:11:29;10.95;;;6.68;;
44722;SDS011;30451;48.638;10.624;2022-12-18T17:13:55;9.07;;;5.90;;
44722;SDS011;30451;48.638;10.624;2022-12-18T17:16:21;7.68;;;5.60;;
44722;SDS011;30451;48.638;10.624;2022-12-18T17:18:48;8.95;;;6.43;;
44722;SDS011;30451;48.638;10.624;2022-12-18T17:21:16;9.48;;;6.32;;
44722;SDS011;30451;48.638;10.624;2022-12-18T17:23:41;8.68;;;6.25;;